Two Dot, MT (59085)

8:06 AM MDT on October 22, 2014 (GMT -0600)
Lewistown Municipal | Change Station
CLOSE
Current Station
Airport
Location: Lewistown,
Elevation: 4167 ft
Nearby Weather Stations

Elev 4167 ft 47.05 °N, 109.47 °W | Updated 12 minutes ago

Clear
Clear
40 °F
Feels Like 33 °F
N
12
Wind Variable Wind from SW

Today
High -- | Low -- °F
--% Chance of Precip.
Yesterday
High -- | Low -- °F
Precip. -- in
7:47 AM 6:21 PM
Waning Crescent, 2% visible
Pressure 29.98 in
Visibility 10.0 miles
Clouds Clear
Windchill 33 °F
Dew Point 31 °F
Humidity 70%
Rainfall 0.00 in
Snow Depth Not available.
UV 0 out of 12
Pollen 2.60 out of 12
Air Quality Not available.
Flu Activity No Activity
METAR KLWT 221354Z AUTO 23010KT 10SM CLR 04/M01 A2996 RMK AO2 SLP151 T00441006

More Conditions Fewer Conditions

Pressure 29.98 in
Visibility 10.0 miles
Clouds Clear
Windchill 33 °F
Dew Point 31 °F
Humidity 70%
Rainfall 0.00 in
Snow Depth Not available.
UV 0 out of 12
Pollen 2.60 out of 12
Air Quality Not available.
Flu Activity No Activity
METAR KLWT 221354Z AUTO 23010KT 10SM CLR 04/M01 A2996 RMK AO2 SLP151 T00441006

More Conditions Fewer Conditions

10-Day Weather Forecast

Almanac

Astronomy

Oct. 22, 2014 Rise Set
Actual Time 7:47 AM MDT 6:21 PM MDT
Civil Twilight 7:16 AM MDT 6:51 PM MDT
Nautical Twilight 6:41 AM MDT 7:26 PM MDT
Astronomical Twilight 6:06 AM MDT 8:01 PM MDT
Moon 6:28 AM MDT 5:52 PM MDT
Length of Visible Light 11h 35m
Length of Day
10h 33m
Tomorrow will be 3m 6s shorter.
Waning Crescent, 2% of the Moon is Illuminated
Today
Waning Crescent
Oct 23
New
Oct 30
First Quarter
Nov 6
Full
Nov 14
Last Quarter

Today's Extremes

State Highs State Lows

Community

WunderPhotos

Upload Photos

1,763,923 photos uploaded!

WunderBlogs® & News

Nearby

Snow Depth

Station Depth Elevation
Daisy Peak 0 in 7600 ft
Porcupine 0 in 6500 ft
South Fork Shields 1 in 8100 ft
Spur Park 1 in 8100 ft
Crystal Lake 1 in 6050 ft

Earthquake Activity

City Distance Mag. Time & Date
No recent earthquake activity has been reported nearby.
Minimum magnitude displayed is 2.5.

Coastal Water Temperatures

Place Temperature
No Stations Reporting

Nearby Weather Stations